Time;durP1;ratioP1;P1;durP2;ratioP2;P2;SDS_P1;SDS_P2;PMS_P1;PMS_P2;Temp;Humidity;BMP_temperature;BMP_pressure;BME280_temperature;BME280_humidity;BME280_pressure;Samples;Min_cycle;Max_cycle;Signal;HPM_P1;HPM_P2
2023/05/18 00:02:04;;;;;;;;;;;;;;;8.34;55.07;98702.81;5092362;28;19920;-57
2023/05/18 00:04:35;;;;;;;;;;;;;;;8.35;55.54;98704.44;5086904;28;19947;-61
2023/05/18 00:07:03;;;;;;;;;;;;;;;8.40;54.75;98699.03;5086566;28;19920;-57
2023/05/18 00:09:34;;;;;;;;;;;;;;;8.47;54.71;98696.84;5089073;28;19920;-57
2023/05/18 00:12:02;;;;;;;;;;;;;;;8.43;55.13;98694.97;5084060;28;20316;-58
2023/05/18 00:14:30;;;;;;;;;;;;;;;8.44;55.21;98693.88;5085868;28;19928;-57
2023/05/18 00:17:00;;;;;;;;;;;;;;;8.43;55.14;98692.25;5089180;28;19989;-57
2023/05/18 00:19:28;;;;;;;;;;;;;;;8.47;54.28;98687.88;5087856;28;20262;-58
2023/05/18 00:21:58;;;;;;;;;;;;;;;8.43;54.15;98689.56;5086102;28;19920;-57
2023/05/18 00:24:26;;;;;;;;;;;;;;;8.30;54.42;98683.59;5079529;28;19921;-57
2023/05/18 00:26:53;;;;;;;;;;;;;;;8.26;54.39;98687.16;5088493;28;19920;-57
2023/05/18 00:29:21;;;;;;;;;;;;;;;8.30;54.19;98685.50;5087600;28;19989;-57
2023/05/18 00:31:49;;;;;;;;;;;;;;;8.25;54.45;98689.03;5119340;28;19960;-61
2023/05/18 00:34:17;;;;;;;;;;;;;;;8.25;54.78;98683.63;5073184;28;19921;-58
2023/05/18 00:36:45;;;;;;;;;;;;;;;8.14;54.74;98682.03;5098054;28;19924;-57
2023/05/18 00:39:14;;;;;;;;;;;;;;;8.10;55.80;98691.81;5086970;28;19928;-57
2023/05/18 00:41:42;;;;;;;;;;;;;;;8.11;55.63;98696.16;5110502;28;19987;-57
2023/05/18 00:44:10;;;;;;;;;;;;;;;8.18;55.28;98687.72;5095608;28;20297;-58
2023/05/18 00:46:38;;;;;;;;;;;;;;;8.15;55.44;98697.22;5115720;27;19920;-57
2023/05/18 00:49:05;;;;;;;;;;;;;;;8.26;55.40;98695.28;5082448;28;20362;-57
2023/05/18 00:51:33;;;;;;;;;;;;;;;8.17;56.20;98696.94;5089117;28;20281;-57
2023/05/18 00:54:03;;;;;;;;;;;;;;;8.02;56.41;98689.66;5097360;28;19920;-57
2023/05/18 00:56:33;;;;;;;;;;;;;;;7.92;56.73;98695.09;5100772;28;19920;-58
2023/05/18 00:59:02;;;;;;;;;;;;;;;7.88;57.26;98701.09;5084367;28;19920;-57
2023/05/18 01:01:30;;;;;;;;;;;;;;;7.75;57.26;98695.41;5089857;28;19924;-58
2023/05/18 01:04:01;;;;;;;;;;;;;;;7.65;57.40;98690.84;5085849;28;19926;-58
2023/05/18 01:06:34;;;;;;;;;;;;;;;7.60;58.63;98693.53;5082065;28;19927;-58
2023/05/18 01:09:02;;;;;;;;;;;;;;;7.67;57.72;98694.09;5085510;28;19947;-60
2023/05/18 01:11:35;;;;;;;;;;;;;;;7.68;57.14;98695.72;5089318;28;19927;-61
2023/05/18 01:14:04;;;;;;;;;;;;;;;7.72;57.55;98683.22;5084774;28;19920;-57
2023/05/18 01:16:36;;;;;;;;;;;;;;;7.70;57.63;98685.41;5083903;28;19920;-60
2023/05/18 01:19:06;;;;;;;;;;;;;;;7.74;57.66;98688.41;5082002;28;19931;-57
2023/05/18 01:21:41;;;;;;;;;;;;;;;7.77;57.31;98688.63;5097639;28;20002;-56
2023/05/18 01:24:15;;;;;;;;;;;;;;;7.67;57.77;98683.28;5054887;28;19956;-58
2023/05/18 01:26:44;;;;;;;;;;;;;;;7.71;57.90;98692.44;5061296;28;19975;-56
2023/05/18 01:29:14;;;;;;;;;;;;;;;7.68;57.93;98684.88;5048888;28;20295;-57
2023/05/18 01:31:42;;;;;;;;;;;;;;;7.72;57.79;98691.34;5046592;28;19947;-62
2023/05/18 01:34:10;;;;;;;;;;;;;;;7.65;57.63;98685.44;5050914;28;19929;-57
2023/05/18 01:36:37;;;;;;;;;;;;;;;7.59;57.94;98681.91;5065593;28;19930;-57
2023/05/18 01:39:06;;;;;;;;;;;;;;;7.56;57.94;98681.63;5056610;28;19920;-58
2023/05/18 01:41:38;;;;;;;;;;;;;;;7.56;57.99;98684.34;5086828;28;19925;-58
2023/05/18 01:44:11;;;;;;;;;;;;;;;7.50;58.11;98690.84;5065523;28;20269;-61
2023/05/18 01:46:43;;;;;;;;;;;;;;;7.39;58.37;98681.13;5052616;28;19925;-58
2023/05/18 01:49:13;;;;;;;;;;;;;;;7.39;59.42;98686.53;5065933;28;19921;-58
2023/05/18 01:51:42;;;;;;;;;;;;;;;7.32;59.06;98684.91;5058022;28;20369;-57
2023/05/18 01:54:10;;;;;;;;;;;;;;;7.32;59.30;98681.41;5078027;28;19921;-58
2023/05/18 01:56:38;;;;;;;;;;;;;;;7.24;59.17;98673.81;5066024;28;19920;-59
2023/05/18 01:59:07;;;;;;;;;;;;;;;7.20;59.29;98678.97;5053696;28;19956;-57
2023/05/18 02:01:36;;;;;;;;;;;;;;;7.17;59.36;98674.09;5073668;28;19924;-56
2023/05/18 02:04:07;;;;;;;;;;;;;;;7.15;59.70;98670.88;5081193;28;20442;-57
2023/05/18 02:06:36;;;;;;;;;;;;;;;7.14;59.66;98668.41;5053973;28;19928;-56
2023/05/18 02:09:04;;;;;;;;;;;;;;;7.06;60.30;98667.09;5051154;28;19933;-56
2023/05/18 02:11:49;;;;;;;;;;;;;;;7.03;60.47;98667.59;5058347;28;19956;-57
2023/05/18 02:14:37;;;;;;;;;;;;;;;7.02;60.17;98666.78;5053529;28;19970;-56
2023/05/18 02:17:20;;;;;;;;;;;;;;;7.05;60.28;98654.66;5051319;28;19928;-57
2023/05/18 02:20:09;;;;;;;;;;;;;;;7.06;59.98;98658.97;5055358;28;19926;-57
2023/05/18 02:22:57;;;;;;;;;;;;;;;7.03;60.41;98662.19;5080311;28;19986;-57
2023/05/18 02:25:45;;;;;;;;;;;;;;;6.96;60.66;98670.59;5092137;28;19927;-57
2023/05/18 02:28:33;;;;;;;;;;;;;;;6.92;60.61;98661.38;5083701;28;19920;-61
2023/05/18 02:31:21;;;;;;;;;;;;;;;6.88;60.88;98660.31;5100714;28;19920;-56
2023/05/18 02:34:10;;;;;;;;;;;;;;;6.87;60.69;98664.13;5094760;27;20254;-56
2023/05/18 02:36:44;;;;;;;;;;;;;;;6.88;60.83;98660.31;5080584;28;19927;-60
2023/05/18 02:39:32;;;;;;;;;;;;;;;6.87;61.14;98663.28;5117167;27;19939;-57
2023/05/18 02:42:25;;;;;;;;;;;;;;;6.89;61.23;98661.13;5086707;28;19920;-63
2023/05/18 02:45:19;;;;;;;;;;;;;;;6.81;60.91;98668.66;5105170;27;19924;-56
2023/05/18 02:48:09;;;;;;;;;;;;;;;6.63;61.70;98661.09;5085836;28;19928;-61
2023/05/18 02:50:58;;;;;;;;;;;;;;;6.62;61.83;98661.38;5084323;28;19969;-57
2023/05/18 02:53:46;;;;;;;;;;;;;;;6.54;62.10;98670.78;5097447;28;19921;-57
2023/05/18 02:56:36;;;;;;;;;;;;;;;6.60;62.09;98667.00;5110246;27;20008;-57
2023/05/18 02:59:35;;;;;;;;;;;;;;;6.63;62.37;98663.78;5114181;27;20383;-58
2023/05/18 03:02:22;;;;;;;;;;;;;;;6.56;62.50;98663.25;5081033;28;20254;-58
2023/05/18 03:05:10;;;;;;;;;;;;;;;6.61;62.11;98662.44;5089263;28;19929;-57
2023/05/18 03:08:01;;;;;;;;;;;;;;;6.54;62.25;98666.19;5092069;28;20279;-56
2023/05/18 03:10:50;;;;;;;;;;;;;;;6.46;62.37;98661.31;5086815;28;19924;-59
2023/05/18 03:13:38;;;;;;;;;;;;;;;6.44;62.85;98668.84;5102814;27;20038;-56
2023/05/18 03:16:27;;;;;;;;;;;;;;;6.42;63.13;98665.63;5088211;28;19924;-58
2023/05/18 03:18:57;;;;;;;;;;;;;;;6.46;63.16;98665.91;5084159;28;20034;-59
2023/05/18 03:21:32;;;;;;;;;;;;;;;6.46;62.83;98671.31;5093149;28;19982;-56
2023/05/18 03:24:01;;;;;;;;;;;;;;;6.46;62.81;98661.31;5107662;27;19966;-57
2023/05/18 03:26:31;;;;;;;;;;;;;;;6.33;63.35;98663.69;5111263;27;19967;-56
2023/05/18 03:29:00;;;;;;;;;;;;;;;6.32;63.83;98671.00;5085529;28;19920;-56
2023/05/18 03:31:28;;;;;;;;;;;;;;;6.30;64.11;98663.16;5085173;28;19932;-56
2023/05/18 03:33:58;;;;;;;;;;;;;;;6.32;64.26;98667.47;5086497;28;20385;-57
2023/05/18 03:36:32;;;;;;;;;;;;;;;6.34;63.61;98660.75;5085744;28;20308;-56
2023/05/18 03:38:59;;;;;;;;;;;;;;;6.32;63.42;98671.00;5105679;28;19973;-59
2023/05/18 03:41:30;;;;;;;;;;;;;;;6.29;63.71;98669.66;5084329;28;19928;-56
2023/05/18 03:43:58;;;;;;;;;;;;;;;6.28;63.90;98668.03;5085512;28;20376;-56
2023/05/18 03:46:26;;;;;;;;;;;;;;;6.23;64.18;98665.31;5082509;28;19920;-57
2023/05/18 03:49:00;;;;;;;;;;;;;;;6.22;63.77;98666.34;5081401;28;19951;-57
2023/05/18 03:51:36;;;;;;;;;;;;;;;6.25;63.89;98668.53;5077003;28;19925;-57
2023/05/18 03:54:04;;;;;;;;;;;;;;;6.33;63.95;98669.09;5083962;28;19966;-57
2023/05/18 03:56:33;;;;;;;;;;;;;;;6.31;63.91;98669.38;5109791;27;19920;-57
2023/05/18 03:59:02;;;;;;;;;;;;;;;6.33;64.08;98666.41;5098083;28;19924;-59
2023/05/18 04:01:31;;;;;;;;;;;;;;;6.35;63.80;98667.78;5085706;28;19927;-57
2023/05/18 04:03:59;;;;;;;;;;;;;;;6.32;63.73;98671.00;5083753;28;19955;-56
2023/05/18 04:06:27;;;;;;;;;;;;;;;6.35;63.33;98672.38;5086670;28;20297;-56
2023/05/18 04:08:55;;;;;;;;;;;;;;;6.33;63.55;98675.31;5111021;27;19920;-56
2023/05/18 04:11:25;;;;;;;;;;;;;;;6.25;63.76;98673.94;5082277;28;20304;-56
2023/05/18 04:13:54;;;;;;;;;;;;;;;6.26;63.74;98680.16;5079163;28;19965;-56
2023/05/18 04:16:22;;;;;;;;;;;;;;;6.34;63.62;98679.66;5108889;27;20269;-57
2023/05/18 04:18:51;;;;;;;;;;;;;;;6.45;63.09;98683.19;5083223;28;20708;-57
2023/05/18 04:21:19;;;;;;;;;;;;;;;6.50;63.26;98685.91;5080975;28;19924;-57
2023/05/18 04:23:47;;;;;;;;;;;;;;;6.55;62.84;98694.00;5082098;28;19920;-57
2023/05/18 04:26:18;;;;;;;;;;;;;;;6.60;63.05;98699.41;5090716;28;19928;-56
2023/05/18 04:28:47;;;;;;;;;;;;;;;6.64;62.60;98695.09;5087940;28;19959;-56
2023/05/18 04:31:16;;;;;;;;;;;;;;;6.65;61.94;98699.41;5100167;28;19920;-59
2023/05/18 04:33:45;;;;;;;;;;;;;;;6.72;62.16;98704.59;5099673;28;19932;-56
2023/05/18 04:36:13;;;;;;;;;;;;;;;6.66;61.70;98701.06;5082622;28;19920;-56
2023/05/18 04:38:43;;;;;;;;;;;;;;;6.66;61.70;98706.47;5090829;28;19924;-56
2023/05/18 04:41:11;;;;;;;;;;;;;;;6.70;61.61;98707.53;5120408;27;19966;-55
2023/05/18 04:43:40;;;;;;;;;;;;;;;6.74;61.92;98708.63;5086092;28;19932;-56
2023/05/18 04:46:08;;;;;;;;;;;;;;;6.78;61.78;98711.63;5092156;28;19924;-60
2023/05/18 04:48:37;;;;;;;;;;;;;;;6.71;61.85;98711.03;5079034;28;20369;-56
2023/05/18 04:51:06;;;;;;;;;;;;;;;6.71;61.98;98713.75;5085271;28;19926;-60
2023/05/18 04:53:34;;;;;;;;;;;;;;;6.79;62.19;98710.53;5078268;28;20361;-56
2023/05/18 04:56:01;;;;;;;;;;;;;;;6.88;61.69;98714.34;5079943;28;20403;-56
2023/05/18 04:58:34;;;;;;;;;;;;;;;6.99;61.68;98715.19;5078203;28;19947;-57
2023/05/18 05:01:02;;;;;;;;;;;;;;;7.07;61.00;98711.94;5086476;28;19932;-58
2023/05/18 05:03:29;;;;;;;;;;;;;;;7.11;60.96;98714.91;5086765;28;20262;-56
2023/05/18 05:05:59;;;;;;;;;;;;;;;7.06;61.49;98710.31;5086447;28;19968;-57
2023/05/18 05:08:26;;;;;;;;;;;;;;;7.10;61.08;98716.81;5101695;28;19928;-55
2023/05/18 05:10:55;;;;;;;;;;;;;;;7.26;61.12;98718.44;5087538;28;19920;-56
2023/05/18 05:13:23;;;;;;;;;;;;;;;7.26;60.64;98714.94;5079253;28;19935;-56
2023/05/18 05:15:51;;;;;;;;;;;;;;;7.22;60.75;98711.94;5099565;28;19920;-56
2023/05/18 05:18:19;;;;;;;;;;;;;;;7.20;61.02;98716.81;5090875;28;19963;-57
2023/05/18 05:20:48;;;;;;;;;;;;;;;7.18;60.64;98716.25;5103379;28;19924;-58
2023/05/18 05:23:17;;;;;;;;;;;;;;;7.31;60.20;98717.63;5084420;28;19926;-58
2023/05/18 05:25:45;;;;;;;;;;;;;;;7.43;60.54;98720.88;5089683;28;19926;-56
2023/05/18 05:28:13;;;;;;;;;;;;;;;7.51;60.34;98717.63;5106208;28;19920;-56
2023/05/18 05:30:42;;;;;;;;;;;;;;;7.73;59.96;98716.53;5086615;28;19982;-57
2023/05/18 05:33:10;;;;;;;;;;;;;;;7.69;59.54;98716.25;5106039;28;19942;-57
2023/05/18 05:35:38;;;;;;;;;;;;;;;7.70;59.24;98720.56;5087305;28;19971;-57
2023/05/18 05:38:06;;;;;;;;;;;;;;;7.71;59.41;98715.97;5081677;28;19920;-58
2023/05/18 05:40:36;;;;;;;;;;;;;;;7.75;59.12;98723.28;5091085;28;19920;-57
2023/05/18 05:43:04;;;;;;;;;;;;;;;7.85;59.35;98715.16;5087059;28;19932;-57
2023/05/18 05:45:32;;;;;;;;;;;;;;;7.99;58.80;98717.25;5102061;28;20229;-61
2023/05/18 05:48:04;;;;;;;;;;;;;;;8.12;58.45;98720.22;5118606;27;20265;-57
2023/05/18 05:50:32;;;;;;;;;;;;;;;8.21;58.09;98722.38;5092812;28;19920;-57
2023/05/18 05:53:01;;;;;;;;;;;;;;;8.32;58.00;98716.63;5095840;27;20015;-61
2023/05/18 05:55:32;;;;;;;;;;;;;;;8.43;57.47;98720.16;5097727;28;19966;-57
2023/05/18 05:58:04;;;;;;;;;;;;;;;8.46;57.93;98721.47;5103886;28;19920;-57
2023/05/18 06:00:32;;;;;;;;;;;;;;;8.62;57.60;98713.00;5085489;28;19921;-58
2023/05/18 06:03:01;;;;;;;;;;;;;;;8.71;57.27;98720.56;5110289;28;19969;-57
2023/05/18 06:05:42;;;;;;;;;;;;;;;8.84;57.44;98711.78;5082867;28;19928;-59
2023/05/18 06:08:14;;;;;;;;;;;;;;;8.96;56.70;98717.72;5093192;28;19927;-57
2023/05/18 06:10:42;;;;;;;;;;;;;;;9.16;56.72;98719.44;5084973;28;20007;-57
2023/05/18 06:13:12;;;;;;;;;;;;;;;9.30;55.66;98715.00;5079568;28;19932;-59
2023/05/18 06:15:51;;;;;;;;;;;;;;;9.47;55.38;98719.22;5093465;28;19947;-58
2023/05/18 06:18:21;;;;;;;;;;;;;;;9.54;55.09;98722.44;5084552;28;19920;-57
2023/05/18 06:20:50;;;;;;;;;;;;;;;9.80;54.25;98721.09;5087905;28;19962;-57
2023/05/18 06:23:21;;;;;;;;;;;;;;;9.81;54.47;98720.00;5057782;28;19928;-58
2023/05/18 06:26:06;;;;;;;;;;;;;;;9.97;52.90;98720.66;5079429;28;19920;-58
2023/05/18 06:28:38;;;;;;;;;;;;;;;9.99;53.54;98723.88;5074945;28;20299;-57
2023/05/18 06:31:18;;;;;;;;;;;;;;;10.23;53.17;98715.78;5051094;28;19966;-59
2023/05/18 06:33:50;;;;;;;;;;;;;;;10.33;52.12;98720.28;5065831;28;20807;-57
2023/05/18 06:36:18;;;;;;;;;;;;;;;10.26;52.22;98720.63;5047637;28;20265;-58
2023/05/18 06:38:46;;;;;;;;;;;;;;;10.52;51.67;98723.88;5054104;28;19970;-57
2023/05/18 06:41:14;;;;;;;;;;;;;;;10.54;51.17;98718.13;5073198;28;20002;-58
2023/05/18 06:43:43;;;;;;;;;;;;;;;10.62;51.56;98717.50;5058381;28;19999;-57
2023/05/18 06:46:21;;;;;;;;;;;;;;;10.77;50.36;98717.28;5050055;28;19998;-57
2023/05/18 06:48:55;;;;;;;;;;;;;;;10.88;50.01;98712.53;5054096;28;19920;-59
2023/05/18 06:51:24;;;;;;;;;;;;;;;10.99;49.90;98719.44;5059033;28;19969;-60
2023/05/18 06:53:54;;;;;;;;;;;;;;;11.08;49.10;98717.69;5047469;28;19932;-57
2023/05/18 06:56:22;;;;;;;;;;;;;;;11.05;49.43;98720.16;5080727;28;20350;-58
2023/05/18 06:58:53;;;;;;;;;;;;;;;11.16;48.91;98727.06;5055033;28;19928;-57
2023/05/18 07:01:20;;;;;;;;;;;;;;;11.14;48.90;98721.94;5050510;28;19928;-57
2023/05/18 07:03:48;;;;;;;;;;;;;;;11.27;48.81;98717.66;5050222;28;19920;-57
2023/05/18 07:06:16;;;;;;;;;;;;;;;11.44;49.04;98723.34;5072874;28;19927;-59
2023/05/18 07:08:44;;;;;;;;;;;;;;;11.58;48.49;98722.59;5061365;28;19927;-57
2023/05/18 07:11:12;;;;;;;;;;;;;;;11.76;47.47;98717.09;5049482;28;19921;-57
2023/05/18 07:13:40;;;;;;;;;;;;;;;11.90;47.76;98721.81;5067987;28;19946;-57
2023/05/18 07:16:09;;;;;;;;;;;;;;;11.98;47.20;98727.34;5071167;28;20365;-54
2023/05/18 07:18:41;;;;;;;;;;;;;;;12.04;46.57;98726.16;5052665;28;19930;-57
2023/05/18 07:21:09;;;;;;;;;;;;;;;12.03;46.81;98727.25;5072716;28;19925;-60
2023/05/18 07:23:36;;;;;;;;;;;;;;;12.16;46.36;98720.22;5068833;28;19954;-61
2023/05/18 07:26:06;;;;;;;;;;;;;;;12.26;46.59;98722.75;5057860;28;19993;-57
2023/05/18 07:28:34;;;;;;;;;;;;;;;12.47;45.97;98719.63;5069484;28;20044;-55
2023/05/18 07:31:02;;;;;;;;;;;;;;;12.47;45.39;98723.16;5060410;28;19939;-57
2023/05/18 07:33:31;;;;;;;;;;;;;;;12.34;45.21;98723.94;5067805;28;19984;-57
2023/05/18 07:35:59;;;;;;;;;;;;;;;12.48;45.82;98718.50;5051412;28;20340;-57
2023/05/18 07:38:27;;;;;;;;;;;;;;;12.70;45.77;98712.31;5062484;28;19935;-57
2023/05/18 07:40:58;;;;;;;;;;;;;;;12.87;46.01;98714.41;5060945;28;20439;-55
2023/05/18 07:43:26;;;;;;;;;;;;;;;12.99;44.65;98712.75;5056868;28;20034;-58
2023/05/18 07:45:54;;;;;;;;;;;;;;;12.98;44.56;98713.88;5053545;28;19931;-57
2023/05/18 07:48:22;;;;;;;;;;;;;;;12.95;44.09;98711.78;5053917;28;19970;-58
2023/05/18 07:50:51;;;;;;;;;;;;;;;12.97;43.22;98706.00;5070897;28;19973;-60
2023/05/18 07:53:19;;;;;;;;;;;;;;;13.05;43.14;98703.34;5068819;28;19954;-58
2023/05/18 07:55:48;;;;;;;;;;;;;;;13.19;42.79;98702.50;5064204;28;19935;-60
2023/05/18 07:58:18;;;;;;;;;;;;;;;13.26;42.58;98702.88;5067338;28;19941;-58
2023/05/18 08:00:46;;;;;;;;;;;;;;;13.50;42.43;98706.13;5053432;28;19935;-58
2023/05/18 08:03:14;;;;;;;;;;;;;;;13.61;42.22;98706.69;5071152;28;19942;-55
2023/05/18 08:05:42;;;;;;;;;;;;;;;13.77;42.94;98709.84;5065138;28;19946;-56
2023/05/18 08:08:14;;;;;;;;;;;;;;;13.81;40.97;98710.81;5070666;28;19935;-56
2023/05/18 08:10:41;;;;;;;;;;;;;;;13.82;42.44;98712.44;5059832;28;19925;-56
2023/05/18 08:13:10;;;;;;;;;;;;;;;13.89;42.02;98707.31;5062775;28;19939;-57
2023/05/18 08:15:39;;;;;;;;;;;;;;;14.05;42.40;98711.25;5053023;28;19974;-56
2023/05/18 08:18:07;;;;;;;;;;;;;;;14.11;41.23;98710.03;5057512;28;20446;-57
2023/05/18 08:20:38;;;;;;;;;;;;;;;14.11;41.26;98707.28;5050566;28;20606;-56
2023/05/18 08:23:06;;;;;;;;;;;;;;;14.28;40.52;98706.56;5079188;28;19962;-56
2023/05/18 08:25:35;;;;;;;;;;;;;;;14.47;40.23;98705.47;5084852;28;19943;-56
2023/05/18 08:28:03;;;;;;;;;;;;;;;14.66;39.97;98704.09;5082889;28;19939;-57
2023/05/18 08:30:31;;;;;;;;;;;;;;;14.66;39.98;98706.84;5082898;28;19920;-56
2023/05/18 08:32:59;;;;;;;;;;;;;;;14.63;38.37;98707.47;5086935;28;19963;-57
2023/05/18 08:35:28;;;;;;;;;;;;;;;14.65;39.19;98705.25;5091515;28;19924;-56
2023/05/18 08:37:56;;;;;;;;;;;;;;;14.82;38.09;98703.66;5102614;28;19920;-57
2023/05/18 08:40:27;;;;;;;;;;;;;;;15.04;38.56;98697.25;5083934;28;19920;-58
2023/05/18 08:42:58;;;;;;;;;;;;;;;15.21;37.51;98694.50;5101476;28;19984;-57
2023/05/18 08:45:27;;;;;;;;;;;;;;;15.24;37.45;98695.81;5076505;28;19947;-56
2023/05/18 08:47:56;;;;;;;;;;;;;;;15.25;37.08;98691.94;5075412;28;19935;-62
2023/05/18 08:50:24;;;;;;;;;;;;;;;15.05;38.57;98687.91;5089422;28;20366;-56
2023/05/18 08:52:54;;;;;;;;;;;;;;;14.98;39.29;98693.84;5087000;28;19934;-56
2023/05/18 08:55:22;;;;;;;;;;;;;;;14.86;38.76;98701.88;5088915;28;19935;-57
2023/05/18 08:57:53;;;;;;;;;;;;;;;14.82;37.58;98692.72;5089332;28;19955;-57
2023/05/18 09:00:24;;;;;;;;;;;;;;;14.87;37.78;98692.56;5081516;28;19951;-57
2023/05/18 09:02:53;;;;;;;;;;;;;;;14.88;37.40;98694.97;5107773;28;19966;-58
2023/05/18 09:05:21;;;;;;;;;;;;;;;14.85;37.80;98694.78;5085456;28;19929;-57
2023/05/18 09:07:49;;;;;;;;;;;;;;;14.97;38.49;98692.25;5091114;28;19920;-58
2023/05/18 09:10:16;;;;;;;;;;;;;;;15.02;38.31;98692.09;5086667;28;19920;-57
2023/05/18 09:12:45;;;;;;;;;;;;;;;14.92;37.01;98693.22;5094859;28;20407;-57
2023/05/18 09:15:14;;;;;;;;;;;;;;;14.87;37.41;98695.31;5093322;28;20327;-57
2023/05/18 09:17:43;;;;;;;;;;;;;;;14.97;37.78;98685.94;5089716;28;20007;-58
2023/05/18 09:20:11;;;;;;;;;;;;;;;15.13;37.69;98690.66;5092739;28;19939;-58
2023/05/18 09:22:40;;;;;;;;;;;;;;;15.26;37.40;98697.06;5095412;28;19977;-58
2023/05/18 09:25:09;;;;;;;;;;;;;;;15.25;36.22;98691.94;5082653;28;19990;-60
2023/05/18 09:27:37;;;;;;;;;;;;;;;15.10;35.90;98679.53;5094001;28;19941;-58
2023/05/18 09:30:09;;;;;;;;;;;;;;;15.24;35.58;98684.84;5091747;28;19935;-59
2023/05/18 09:32:37;;;;;;;;;;;;;;;15.39;35.64;98679.69;5107591;28;19938;-58
2023/05/18 09:35:07;;;;;;;;;;;;;;;15.53;35.79;98682.22;5097289;28;19984;-57
2023/05/18 09:37:35;;;;;;;;;;;;;;;15.45;35.41;98680.31;5089923;28;20303;-57
2023/05/18 09:40:07;;;;;;;;;;;;;;;15.60;35.10;98688.00;5093963;28;19934;-58
2023/05/18 09:42:36;;;;;;;;;;;;;;;15.86;34.81;98676.22;5081009;28;19930;-57
2023/05/18 09:45:04;;;;;;;;;;;;;;;16.07;35.12;98679.84;5090728;28;19928;-57
2023/05/18 09:47:33;;;;;;;;;;;;;;;16.21;34.98;98674.94;5101953;28;19936;-56
2023/05/18 09:50:00;;;;;;;;;;;;;;;16.40;35.46;98681.94;5091191;28;20446;-63
2023/05/18 09:52:30;;;;;;;;;;;;;;;16.53;34.96;98664.47;5092106;28;19928;-59
2023/05/18 09:54:59;;;;;;;;;;;;;;;16.54;33.86;98665.25;5088702;28;19920;-58
2023/05/18 09:57:27;;;;;;;;;;;;;;;16.21;34.49;98658.50;5088575;28;19920;-57
2023/05/18 09:59:55;;;;;;;;;;;;;;;16.11;34.28;98675.31;5089034;28;20002;-58
2023/05/18 10:02:25;;;;;;;;;;;;;;;16.13;34.77;98678.53;5093942;28;19959;-59
2023/05/18 10:04:52;;;;;;;;;;;;;;;16.15;34.16;98670.00;5088775;28;20377;-58
2023/05/18 10:07:21;;;;;;;;;;;;;;;15.89;34.73;98662.66;5089530;28;20361;-58
2023/05/18 10:10:00;;;;;;;;;;;;;;;16.03;34.88;98653.41;5088683;28;19920;-57
2023/05/18 10:12:28;;;;;;;;;;;;;;;16.39;34.27;98655.66;5089311;28;20266;-60
2023/05/18 10:14:56;;;;;;;;;;;;;;;16.78;33.67;98654.50;5089681;28;19952;-58
2023/05/18 10:17:24;;;;;;;;;;;;;;;16.94;33.25;98657.44;5086037;28;19924;-59
2023/05/18 10:19:54;;;;;;;;;;;;;;;16.91;33.47;98661.66;5093086;28;19920;-58
2023/05/18 10:22:23;;;;;;;;;;;;;;;16.64;33.02;98654.72;5090808;28;20308;-62
2023/05/18 10:24:52;;;;;;;;;;;;;;;16.75;34.90;98655.94;5066406;28;19993;-58
2023/05/18 10:27:22;;;;;;;;;;;;;;;16.99;34.12;98649.81;5079337;28;20020;-56
2023/05/18 10:29:51;;;;;;;;;;;;;;;17.27;34.30;98641.81;5081881;28;19920;-57
2023/05/18 10:32:19;;;;;;;;;;;;;;;17.53;33.39;98641.56;5084870;28;19951;-56
2023/05/18 10:34:47;;;;;;;;;;;;;;;17.63;33.55;98640.31;5091392;28;19942;-58
2023/05/18 10:37:15;;;;;;;;;;;;;;;17.33;33.04;98647.88;5090763;28;19920;-58
2023/05/18 10:39:48;;;;;;;;;;;;;;;17.16;32.36;98637.06;5080485;28;20021;-58
2023/05/18 10:42:18;;;;;;;;;;;;;;;17.22;33.27;98636.53;5090513;28;20279;-59
2023/05/18 10:44:46;;;;;;;;;;;;;;;17.35;32.69;98631.88;5081637;28;19931;-59
2023/05/18 10:47:13;;;;;;;;;;;;;;;17.51;31.15;98635.56;5078727;28;20504;-57
2023/05/18 10:49:42;;;;;;;;;;;;;;;17.58;30.70;98635.03;5085812;28;19953;-57
2023/05/18 10:52:10;;;;;;;;;;;;;;;17.28;31.53;98628.88;5064694;28;19935;-57
2023/05/18 10:54:38;;;;;;;;;;;;;;;17.27;32.68;98630.03;5074496;28;19981;-65
2023/05/18 10:57:10;;;;;;;;;;;;;;;17.26;31.93;98629.22;5076070;28;19938;-58
2023/05/18 10:59:41;;;;;;;;;;;;;;;17.28;32.61;98628.88;5086323;28;19935;-57
2023/05/18 11:02:10;;;;;;;;;;;;;;;17.08;32.48;98633.25;5086946;28;19988;-56
2023/05/18 11:04:38;;;;;;;;;;;;;;;17.13;32.82;98622.06;5080740;28;20053;-57
2023/05/18 11:07:10;;;;;;;;;;;;;;;17.31;32.49;98624.63;5079171;28;19976;-57
2023/05/18 11:09:40;;;;;;;;;;;;;;;17.28;32.84;98629.69;5073536;28;19943;-57
2023/05/18 11:12:11;;;;;;;;;;;;;;;16.76;32.54;98624.63;5073875;28;19962;-60
2023/05/18 11:14:48;;;;;;;;;;;;;;;16.64;33.02;98621.00;5084437;28;19980;-58
2023/05/18 11:17:17;;;;;;;;;;;;;;;16.67;32.57;98612.91;5070244;28;20287;-59
2023/05/18 11:20:11;;;;;;;;;;;;;;;16.82;33.54;98611.50;5083206;28;19939;-58
2023/05/18 11:22:42;;;;;;;;;;;;;;;17.03;33.06;98623.28;5056450;28;19969;-58
2023/05/18 11:25:12;;;;;;;;;;;;;;;16.93;33.01;98609.16;5067641;28;19928;-58
2023/05/18 11:27:39;;;;;;;;;;;;;;;16.93;31.93;98612.69;5068929;28;19951;-57
2023/05/18 11:30:12;;;;;;;;;;;;;;;16.97;34.03;98613.63;5064438;28;19949;-64
2023/05/18 11:32:49;;;;;;;;;;;;;;;16.93;31.75;98615.44;5070660;28;20049;-57
2023/05/18 11:35:22;;;;;;;;;;;;;;;17.00;32.64;98618.47;5058830;28;19935;-58
2023/05/18 11:37:50;;;;;;;;;;;;;;;17.01;31.71;98609.09;5060099;28;19931;-58
2023/05/18 11:40:39;;;;;;;;;;;;;;;16.94;32.24;98621.75;5068106;28;19964;-58
2023/05/18 11:43:07;;;;;;;;;;;;;;;16.90;31.80;98607.91;5071477;28;19924;-58
2023/05/18 11:45:36;;;;;;;;;;;;;;;16.78;31.12;98610.59;5062575;28;19971;-57
2023/05/18 11:48:04;;;;;;;;;;;;;;;16.84;32.79;98601.00;5062462;28;20345;-57
2023/05/18 11:50:32;;;;;;;;;;;;;;;16.88;32.93;98603.88;5067836;28;19943;-57
2023/05/18 11:53:00;;;;;;;;;;;;;;;17.09;32.60;98604.66;5062305;28;19938;-58
2023/05/18 11:55:37;;;;;;;;;;;;;;;17.24;32.09;98608.72;5069749;28;19920;-58
2023/05/18 11:58:06;;;;;;;;;;;;;;;17.26;30.61;98607.25;5050839;28;19943;-57
2023/05/18 12:00:38;;;;;;;;;;;;;;;17.24;31.98;98612.25;5066822;28;19966;-57
2023/05/18 12:03:06;;;;;;;;;;;;;;;17.33;32.76;98595.72;5066552;28;19920;-58
2023/05/18 12:05:34;;;;;;;;;;;;;;;17.34;32.83;98594.56;5066738;28;20408;-55
2023/05/18 12:08:02;;;;;;;;;;;;;;;17.42;32.17;98599.19;5068936;28;19920;-57
2023/05/18 12:10:30;;;;;;;;;;;;;;;17.36;31.49;98596.97;5071136;28;19920;-57
2023/05/18 12:12:58;;;;;;;;;;;;;;;17.34;32.49;98591.81;5067773;28;19925;-57
2023/05/18 12:15:27;;;;;;;;;;;;;;;17.24;31.19;98605.97;5059305;28;19924;-59
2023/05/18 12:17:58;;;;;;;;;;;;;;;17.13;31.26;98593.81;5069038;28;19960;-57
2023/05/18 12:20:27;;;;;;;;;;;;;;;17.13;31.95;98599.28;5064914;28;19921;-57
2023/05/18 12:22:55;;;;;;;;;;;;;;;17.05;30.85;98586.47;5084845;28;19924;-58
2023/05/18 12:25:24;;;;;;;;;;;;;;;17.07;31.95;98579.50;5090086;28;19924;-58
2023/05/18 12:27:52;;;;;;;;;;;;;;;17.23;32.04;98580.47;5091126;28;19939;-58
2023/05/18 12:30:20;;;;;;;;;;;;;;;17.39;31.17;98588.06;5086951;28;20365;-56
2023/05/18 12:32:48;;;;;;;;;;;;;;;17.38;30.99;98581.75;5074089;28;20276;-57
2023/05/18 12:35:18;;;;;;;;;;;;;;;17.39;30.75;98580.63;5070836;28;20283;-59
2023/05/18 12:37:48;;;;;;;;;;;;;;;17.41;31.30;98583.00;5072344;28;20262;-60
2023/05/18 12:40:16;;;;;;;;;;;;;;;17.23;30.87;98577.72;5090200;28;19962;-57
2023/05/18 12:42:51;;;;;;;;;;;;;;;17.37;31.40;98591.16;5082709;28;20433;-60
2023/05/18 12:45:20;;;;;;;;;;;;;;;17.34;31.43;98580.03;5103752;28;20386;-58
2023/05/18 12:47:52;;;;;;;;;;;;;;;17.38;31.52;98573.53;5083591;28;19947;-58
2023/05/18 12:50:22;;;;;;;;;;;;;;;17.46;30.93;98575.34;5091401;28;20427;-58
2023/05/18 12:52:50;;;;;;;;;;;;;;;17.52;31.26;98581.44;5085579;28;20413;-58
2023/05/18 12:55:20;;;;;;;;;;;;;;;17.43;30.77;98578.00;5085313;28;20427;-60
2023/05/18 12:57:58;;;;;;;;;;;;;;;17.28;30.54;98574.75;5091830;28;20315;-58
2023/05/18 13:00:26;;;;;;;;;;;;;;;17.18;30.49;98571.63;5089706;28;19920;-57
2023/05/18 13:02:54;;;;;;;;;;;;;;;17.22;31.12;98578.06;5094512;28;19950;-59
2023/05/18 13:05:25;;;;;;;;;;;;;;;17.22;29.19;98578.06;5104319;28;19920;-57
2023/05/18 13:07:54;;;;;;;;;;;;;;;17.29;30.03;98570.84;5075693;28;20006;-57
2023/05/18 13:10:22;;;;;;;;;;;;;;;17.33;29.24;98571.00;5076719;28;19954;-59
2023/05/18 13:12:50;;;;;;;;;;;;;;;17.34;28.79;98572.59;5085433;28;20542;-57